sensor_id;sensor_type;location;lat;lon;timestamp;P1;durP1;ratioP1;P2;durP2;ratioP2
13208;SDS011;6669;42.678;23.332;2023-08-01T00:00:16;1.45;;;1.35;;
13208;SDS011;6669;42.678;23.332;2023-08-01T00:02:44;1.02;;;1.00;;
13208;SDS011;6669;42.678;23.332;2023-08-01T00:05:12;1.38;;;1.27;;
13208;SDS011;6669;42.678;23.332;2023-08-01T00:07:42;1.33;;;1.23;;
13208;SDS011;6669;42.678;23.332;2023-08-01T00:10:09;1.98;;;1.13;;
13208;SDS011;6669;42.678;23.332;2023-08-01T00:12:37;1.45;;;1.20;;
13208;SDS011;6669;42.678;23.332;2023-08-01T00:15:06;1.55;;;1.45;;
13208;SDS011;6669;42.678;23.332;2023-08-01T00:17:35;1.60;;;1.35;;
13208;SDS011;6669;42.678;23.332;2023-08-01T00:20:03;1.77;;;1.67;;
13208;SDS011;6669;42.678;23.332;2023-08-01T00:22:32;1.10;;;1.10;;
13208;SDS011;6669;42.678;23.332;2023-08-01T00:25:01;1.40;;;1.30;;
13208;SDS011;6669;42.678;23.332;2023-08-01T00:27:29;1.35;;;1.25;;
13208;SDS011;6669;42.678;23.332;2023-08-01T00:30:06;1.70;;;1.60;;
13208;SDS011;6669;42.678;23.332;2023-08-01T00:32:34;1.60;;;1.33;;
13208;SDS011;6669;42.678;23.332;2023-08-01T00:35:03;1.50;;;1.40;;
13208;SDS011;6669;42.678;23.332;2023-08-01T00:37:31;1.95;;;1.40;;
13208;SDS011;6669;42.678;23.332;2023-08-01T00:40:01;1.23;;;1.05;;
13208;SDS011;6669;42.678;23.332;2023-08-01T00:42:29;1.27;;;1.20;;
13208;SDS011;6669;42.678;23.332;2023-08-01T00:44:57;1.33;;;1.20;;
13208;SDS011;6669;42.678;23.332;2023-08-01T00:47:27;1.38;;;1.27;;
13208;SDS011;6669;42.678;23.332;2023-08-01T00:49:55;1.60;;;1.30;;
13208;SDS011;6669;42.678;23.332;2023-08-01T00:52:23;1.65;;;1.27;;
13208;SDS011;6669;42.678;23.332;2023-08-01T00:54:51;1.20;;;1.08;;
13208;SDS011;6669;42.678;23.332;2023-08-01T00:57:21;1.55;;;1.45;;
13208;SDS011;6669;42.678;23.332;2023-08-01T00:59:49;1.40;;;1.30;;
13208;SDS011;6669;42.678;23.332;2023-08-01T01:02:17;1.30;;;1.20;;
13208;SDS011;6669;42.678;23.332;2023-08-01T01:04:45;0.98;;;0.98;;
13208;SDS011;6669;42.678;23.332;2023-08-01T01:07:14;1.65;;;1.55;;
13208;SDS011;6669;42.678;23.332;2023-08-01T01:09:44;1.98;;;1.42;;
13208;SDS011;6669;42.678;23.332;2023-08-01T01:12:12;1.40;;;1.30;;
13208;SDS011;6669;42.678;23.332;2023-08-01T01:14:42;1.27;;;1.13;;
13208;SDS011;6669;42.678;23.332;2023-08-01T01:17:10;1.08;;;0.98;;
13208;SDS011;6669;42.678;23.332;2023-08-01T01:19:38;1.25;;;1.15;;
13208;SDS011;6669;42.678;23.332;2023-08-01T01:22:07;1.33;;;1.23;;
13208;SDS011;6669;42.678;23.332;2023-08-01T01:24:38;2.05;;;1.15;;
13208;SDS011;6669;42.678;23.332;2023-08-01T01:27:08;1.40;;;1.30;;
13208;SDS011;6669;42.678;23.332;2023-08-01T01:29:37;1.23;;;1.13;;
13208;SDS011;6669;42.678;23.332;2023-08-01T01:32:06;2.05;;;1.48;;
13208;SDS011;6669;42.678;23.332;2023-08-01T01:34:36;2.00;;;1.50;;
13208;SDS011;6669;42.678;23.332;2023-08-01T01:37:04;1.58;;;1.48;;
13208;SDS011;6669;42.678;23.332;2023-08-01T01:39:33;2.03;;;1.80;;
13208;SDS011;6669;42.678;23.332;2023-08-01T01:42:02;1.60;;;1.50;;
13208;SDS011;6669;42.678;23.332;2023-08-01T01:44:30;1.15;;;1.08;;
13208;SDS011;6669;42.678;23.332;2023-08-01T01:46:58;1.60;;;1.42;;
13208;SDS011;6669;42.678;23.332;2023-08-01T01:49:26;1.52;;;1.38;;
13208;SDS011;6669;42.678;23.332;2023-08-01T01:51:56;1.30;;;1.17;;
13208;SDS011;6669;42.678;23.332;2023-08-01T01:54:24;1.50;;;1.27;;
13208;SDS011;6669;42.678;23.332;2023-08-01T01:56:53;1.35;;;1.25;;
13208;SDS011;6669;42.678;23.332;2023-08-01T01:59:21;1.88;;;1.20;;
13208;SDS011;6669;42.678;23.332;2023-08-01T02:01:49;1.00;;;1.00;;
13208;SDS011;6669;42.678;23.332;2023-08-01T02:04:17;1.50;;;1.40;;
13208;SDS011;6669;42.678;23.332;2023-08-01T02:06:45;1.42;;;1.30;;
13208;SDS011;6669;42.678;23.332;2023-08-01T02:09:14;1.23;;;1.13;;
13208;SDS011;6669;42.678;23.332;2023-08-01T02:11:42;1.30;;;1.20;;
13208;SDS011;6669;42.678;23.332;2023-08-01T02:14:11;1.95;;;1.30;;
13208;SDS011;6669;42.678;23.332;2023-08-01T02:16:40;2.45;;;1.20;;
13208;SDS011;6669;42.678;23.332;2023-08-01T02:19:08;1.45;;;1.35;;
13208;SDS011;6669;42.678;23.332;2023-08-01T02:21:36;3.92;;;1.17;;
13208;SDS011;6669;42.678;23.332;2023-08-01T02:24:04;1.85;;;1.50;;
13208;SDS011;6669;42.678;23.332;2023-08-01T02:26:32;1.50;;;1.40;;
13208;SDS011;6669;42.678;23.332;2023-08-01T02:29:00;1.50;;;1.40;;
13208;SDS011;6669;42.678;23.332;2023-08-01T02:31:29;1.60;;;1.50;;
13208;SDS011;6669;42.678;23.332;2023-08-01T02:33:57;1.35;;;1.20;;
13208;SDS011;6669;42.678;23.332;2023-08-01T02:36:25;1.60;;;1.50;;
13208;SDS011;6669;42.678;23.332;2023-08-01T02:38:53;2.20;;;1.20;;
13208;SDS011;6669;42.678;23.332;2023-08-01T02:41:21;0.98;;;0.98;;
13208;SDS011;6669;42.678;23.332;2023-08-01T02:43:49;1.65;;;1.50;;
13208;SDS011;6669;42.678;23.332;2023-08-01T02:46:17;1.80;;;1.70;;
13208;SDS011;6669;42.678;23.332;2023-08-01T02:48:47;1.40;;;1.30;;
13208;SDS011;6669;42.678;23.332;2023-08-01T02:51:16;1.50;;;1.40;;
13208;SDS011;6669;42.678;23.332;2023-08-01T02:53:44;1.45;;;1.25;;
13208;SDS011;6669;42.678;23.332;2023-08-01T02:56:12;1.30;;;1.20;;
13208;SDS011;6669;42.678;23.332;2023-08-01T02:58:40;3.78;;;1.42;;
13208;SDS011;6669;42.678;23.332;2023-08-01T03:01:08;1.40;;;1.30;;
13208;SDS011;6669;42.678;23.332;2023-08-01T03:03:37;3.38;;;1.25;;
13208;SDS011;6669;42.678;23.332;2023-08-01T03:06:06;2.15;;;0.95;;
13208;SDS011;6669;42.678;23.332;2023-08-01T03:08:34;1.55;;;1.45;;
13208;SDS011;6669;42.678;23.332;2023-08-01T03:11:02;1.83;;;1.50;;
13208;SDS011;6669;42.678;23.332;2023-08-01T03:13:30;2.50;;;1.50;;
13208;SDS011;6669;42.678;23.332;2023-08-01T03:15:58;1.42;;;1.33;;
13208;SDS011;6669;42.678;23.332;2023-08-01T03:18:26;2.20;;;1.40;;
13208;SDS011;6669;42.678;23.332;2023-08-01T03:20:54;1.48;;;1.38;;
13208;SDS011;6669;42.678;23.332;2023-08-01T03:23:24;1.55;;;1.45;;
13208;SDS011;6669;42.678;23.332;2023-08-01T03:25:52;2.38;;;1.40;;
13208;SDS011;6669;42.678;23.332;2023-08-01T03:28:20;1.58;;;1.40;;
13208;SDS011;6669;42.678;23.332;2023-08-01T03:30:48;1.50;;;1.40;;
13208;SDS011;6669;42.678;23.332;2023-08-01T03:33:17;1.38;;;1.27;;
13208;SDS011;6669;42.678;23.332;2023-08-01T03:35:44;1.40;;;1.30;;
13208;SDS011;6669;42.678;23.332;2023-08-01T03:38:12;1.48;;;1.38;;
13208;SDS011;6669;42.678;23.332;2023-08-01T03:40:42;1.98;;;1.70;;
13208;SDS011;6669;42.678;23.332;2023-08-01T03:43:11;2.05;;;1.80;;
13208;SDS011;6669;42.678;23.332;2023-08-01T03:45:40;2.15;;;1.95;;
13208;SDS011;6669;42.678;23.332;2023-08-01T03:48:08;2.42;;;2.20;;
13208;SDS011;6669;42.678;23.332;2023-08-01T03:50:36;2.45;;;2.25;;
13208;SDS011;6669;42.678;23.332;2023-08-01T03:53:04;2.38;;;2.17;;
13208;SDS011;6669;42.678;23.332;2023-08-01T03:55:32;2.22;;;2.13;;
13208;SDS011;6669;42.678;23.332;2023-08-01T03:58:02;3.83;;;2.22;;
13208;SDS011;6669;42.678;23.332;2023-08-01T04:00:30;3.10;;;2.40;;
13208;SDS011;6669;42.678;23.332;2023-08-01T04:02:58;3.20;;;2.28;;
13208;SDS011;6669;42.678;23.332;2023-08-01T04:05:28;2.60;;;2.40;;
13208;SDS011;6669;42.678;23.332;2023-08-01T04:07:56;3.78;;;2.85;;
13208;SDS011;6669;42.678;23.332;2023-08-01T04:10:24;3.35;;;2.40;;
13208;SDS011;6669;42.678;23.332;2023-08-01T04:12:52;2.95;;;2.65;;
13208;SDS011;6669;42.678;23.332;2023-08-01T04:15:22;2.80;;;2.60;;
13208;SDS011;6669;42.678;23.332;2023-08-01T04:17:50;6.13;;;5.05;;
13208;SDS011;6669;42.678;23.332;2023-08-01T04:20:18;4.70;;;2.92;;
13208;SDS011;6669;42.678;23.332;2023-08-01T04:22:46;2.67;;;2.47;;
13208;SDS011;6669;42.678;23.332;2023-08-01T04:25:14;2.85;;;2.58;;
13208;SDS011;6669;42.678;23.332;2023-08-01T04:27:42;2.67;;;2.47;;
13208;SDS011;6669;42.678;23.332;2023-08-01T04:30:11;4.18;;;3.03;;
13208;SDS011;6669;42.678;23.332;2023-08-01T04:32:40;3.25;;;2.50;;
13208;SDS011;6669;42.678;23.332;2023-08-01T04:35:08;3.28;;;2.70;;
13208;SDS011;6669;42.678;23.332;2023-08-01T04:37:37;2.60;;;2.40;;
13208;SDS011;6669;42.678;23.332;2023-08-01T04:40:05;2.50;;;2.25;;
13208;SDS011;6669;42.678;23.332;2023-08-01T04:42:34;2.55;;;2.35;;
13208;SDS011;6669;42.678;23.332;2023-08-01T04:45:02;2.70;;;2.50;;
13208;SDS011;6669;42.678;23.332;2023-08-01T04:47:32;5.55;;;3.60;;
13208;SDS011;6669;42.678;23.332;2023-08-01T04:50:03;3.40;;;2.47;;
13208;SDS011;6669;42.678;23.332;2023-08-01T04:52:31;2.95;;;2.70;;
13208;SDS011;6669;42.678;23.332;2023-08-01T04:54:59;2.60;;;2.40;;
13208;SDS011;6669;42.678;23.332;2023-08-01T04:57:28;3.33;;;2.92;;
13208;SDS011;6669;42.678;23.332;2023-08-01T04:59:56;2.63;;;2.42;;
13208;SDS011;6669;42.678;23.332;2023-08-01T05:02:26;2.33;;;2.13;;
13208;SDS011;6669;42.678;23.332;2023-08-01T05:04:54;3.42;;;2.38;;
13208;SDS011;6669;42.678;23.332;2023-08-01T05:07:23;2.70;;;2.50;;
13208;SDS011;6669;42.678;23.332;2023-08-01T05:09:51;2.65;;;2.30;;
13208;SDS011;6669;42.678;23.332;2023-08-01T05:12:19;2.50;;;2.30;;
13208;SDS011;6669;42.678;23.332;2023-08-01T05:14:47;2.30;;;2.10;;
13208;SDS011;6669;42.678;23.332;2023-08-01T05:17:15;3.45;;;2.47;;
13208;SDS011;6669;42.678;23.332;2023-08-01T05:19:43;2.20;;;2.00;;
13208;SDS011;6669;42.678;23.332;2023-08-01T05:22:11;2.83;;;2.50;;
13208;SDS011;6669;42.678;23.332;2023-08-01T05:24:41;3.05;;;2.00;;
13208;SDS011;6669;42.678;23.332;2023-08-01T05:27:09;3.92;;;2.47;;
13208;SDS011;6669;42.678;23.332;2023-08-01T05:29:37;3.20;;;2.90;;
13208;SDS011;6669;42.678;23.332;2023-08-01T05:32:05;2.70;;;2.50;;
13208;SDS011;6669;42.678;23.332;2023-08-01T05:34:34;2.58;;;2.38;;
13208;SDS011;6669;42.678;23.332;2023-08-01T05:37:02;3.60;;;2.33;;
13208;SDS011;6669;42.678;23.332;2023-08-01T05:39:30;3.05;;;2.20;;
13208;SDS011;6669;42.678;23.332;2023-08-01T05:41:59;2.92;;;2.30;;
13208;SDS011;6669;42.678;23.332;2023-08-01T05:44:27;2.30;;;2.10;;
13208;SDS011;6669;42.678;23.332;2023-08-01T05:46:55;3.10;;;2.17;;
13208;SDS011;6669;42.678;23.332;2023-08-01T05:49:23;3.92;;;2.38;;
13208;SDS011;6669;42.678;23.332;2023-08-01T05:51:51;4.28;;;1.98;;
13208;SDS011;6669;42.678;23.332;2023-08-01T05:54:19;2.25;;;2.03;;
13208;SDS011;6669;42.678;23.332;2023-08-01T05:56:47;1.98;;;1.60;;
13208;SDS011;6669;42.678;23.332;2023-08-01T05:59:17;1.60;;;1.50;;
13208;SDS011;6669;42.678;23.332;2023-08-01T06:01:46;1.75;;;1.63;;
13208;SDS011;6669;42.678;23.332;2023-08-01T06:04:14;1.48;;;1.38;;
13208;SDS011;6669;42.678;23.332;2023-08-01T06:06:42;2.00;;;1.50;;
13208;SDS011;6669;42.678;23.332;2023-08-01T06:09:10;2.10;;;1.88;;
13208;SDS011;6669;42.678;23.332;2023-08-01T06:11:38;1.95;;;1.75;;
13208;SDS011;6669;42.678;23.332;2023-08-01T06:14:06;2.00;;;1.75;;
13208;SDS011;6669;42.678;23.332;2023-08-01T06:16:36;1.92;;;1.73;;
13208;SDS011;6669;42.678;23.332;2023-08-01T06:19:04;3.22;;;1.63;;
13208;SDS011;6669;42.678;23.332;2023-08-01T06:21:32;2.72;;;1.50;;
13208;SDS011;6669;42.678;23.332;2023-08-01T06:24:00;2.10;;;1.90;;
13208;SDS011;6669;42.678;23.332;2023-08-01T06:26:28;1.73;;;1.63;;
13208;SDS011;6669;42.678;23.332;2023-08-01T06:28:57;2.20;;;1.77;;
13208;SDS011;6669;42.678;23.332;2023-08-01T06:31:25;2.42;;;1.77;;
13208;SDS011;6669;42.678;23.332;2023-08-01T06:33:54;1.98;;;1.70;;
13208;SDS011;6669;42.678;23.332;2023-08-01T06:36:22;2.53;;;1.88;;
13208;SDS011;6669;42.678;23.332;2023-08-01T06:38:50;2.97;;;1.95;;
13208;SDS011;6669;42.678;23.332;2023-08-01T06:41:18;1.75;;;1.50;;
13208;SDS011;6669;42.678;23.332;2023-08-01T06:43:46;2.08;;;1.60;;
13208;SDS011;6669;42.678;23.332;2023-08-01T06:46:14;2.20;;;2.00;;
13208;SDS011;6669;42.678;23.332;2023-08-01T06:48:42;3.10;;;2.80;;
13208;SDS011;6669;42.678;23.332;2023-08-01T06:51:12;3.05;;;2.58;;
13208;SDS011;6669;42.678;23.332;2023-08-01T06:53:40;2.92;;;2.58;;
13208;SDS011;6669;42.678;23.332;2023-08-01T06:56:09;2.50;;;2.17;;
13208;SDS011;6669;42.678;23.332;2023-08-01T06:58:37;4.28;;;1.70;;
13208;SDS011;6669;42.678;23.332;2023-08-01T07:01:05;3.38;;;2.17;;
13208;SDS011;6669;42.678;23.332;2023-08-01T07:03:33;3.80;;;2.60;;
13208;SDS011;6669;42.678;23.332;2023-08-01T07:06:01;2.85;;;2.30;;
13208;SDS011;6669;42.678;23.332;2023-08-01T07:08:34;2.58;;;2.30;;
13208;SDS011;6669;42.678;23.332;2023-08-01T07:11:02;4.15;;;2.33;;
13208;SDS011;6669;42.678;23.332;2023-08-01T07:13:30;4.70;;;2.67;;
13208;SDS011;6669;42.678;23.332;2023-08-01T07:15:58;2.40;;;2.20;;
13208;SDS011;6669;42.678;23.332;2023-08-01T07:18:26;2.40;;;2.20;;
13208;SDS011;6669;42.678;23.332;2023-08-01T07:21:00;2.10;;;1.92;;
13208;SDS011;6669;42.678;23.332;2023-08-01T07:23:28;2.75;;;2.40;;
13208;SDS011;6669;42.678;23.332;2023-08-01T07:25:58;2.80;;;2.60;;
13208;SDS011;6669;42.678;23.332;2023-08-01T07:28:26;2.63;;;2.17;;
13208;SDS011;6669;42.678;23.332;2023-08-01T07:31:00;3.63;;;2.55;;
13208;SDS011;6669;42.678;23.332;2023-08-01T07:33:28;3.35;;;2.00;;
13208;SDS011;6669;42.678;23.332;2023-08-01T07:35:56;2.63;;;2.22;;
13208;SDS011;6669;42.678;23.332;2023-08-01T07:38:24;4.57;;;2.60;;
13208;SDS011;6669;42.678;23.332;2023-08-01T07:40:53;4.03;;;2.33;;
13208;SDS011;6669;42.678;23.332;2023-08-01T07:43:23;3.13;;;2.13;;
13208;SDS011;6669;42.678;23.332;2023-08-01T07:45:55;3.00;;;2.00;;
13208;SDS011;6669;42.678;23.332;2023-08-01T07:48:24;4.70;;;2.20;;
13208;SDS011;6669;42.678;23.332;2023-08-01T07:50:52;3.00;;;2.05;;
13208;SDS011;6669;42.678;23.332;2023-08-01T07:53:20;3.03;;;2.30;;
13208;SDS011;6669;42.678;23.332;2023-08-01T07:55:48;1.98;;;1.80;;
13208;SDS011;6669;42.678;23.332;2023-08-01T07:58:16;2.47;;;2.28;;
13208;SDS011;6669;42.678;23.332;2023-08-01T08:00:45;4.95;;;2.10;;
13208;SDS011;6669;42.678;23.332;2023-08-01T08:03:14;2.80;;;2.38;;
13208;SDS011;6669;42.678;23.332;2023-08-01T08:05:42;2.25;;;2.05;;
13208;SDS011;6669;42.678;23.332;2023-08-01T08:08:11;3.42;;;2.17;;
13208;SDS011;6669;42.678;23.332;2023-08-01T08:10:39;2.30;;;2.10;;
13208;SDS011;6669;42.678;23.332;2023-08-01T08:13:09;2.58;;;2.25;;
13208;SDS011;6669;42.678;23.332;2023-08-01T08:15:37;3.08;;;2.28;;
13208;SDS011;6669;42.678;23.332;2023-08-01T08:18:06;3.03;;;2.08;;
13208;SDS011;6669;42.678;23.332;2023-08-01T08:20:42;1.98;;;1.83;;
13208;SDS011;6669;42.678;23.332;2023-08-01T08:23:12;2.08;;;1.88;;
13208;SDS011;6669;42.678;23.332;2023-08-01T08:25:41;3.03;;;1.90;;
13208;SDS011;6669;42.678;23.332;2023-08-01T08:28:11;2.58;;;1.80;;
13208;SDS011;6669;42.678;23.332;2023-08-01T08:30:40;2.33;;;2.13;;
13208;SDS011;6669;42.678;23.332;2023-08-01T08:33:09;2.00;;;1.80;;
13208;SDS011;6669;42.678;23.332;2023-08-01T08:35:47;2.03;;;1.83;;
13208;SDS011;6669;42.678;23.332;2023-08-01T08:38:16;2.47;;;1.92;;
13208;SDS011;6669;42.678;23.332;2023-08-01T08:40:48;2.55;;;2.17;;
13208;SDS011;6669;42.678;23.332;2023-08-01T08:43:26;1.98;;;1.70;;
13208;SDS011;6669;42.678;23.332;2023-08-01T08:45:55;1.88;;;1.77;;
13208;SDS011;6669;42.678;23.332;2023-08-01T08:48:26;4.45;;;1.90;;
13208;SDS011;6669;42.678;23.332;2023-08-01T08:50:56;3.63;;;2.03;;
13208;SDS011;6669;42.678;23.332;2023-08-01T08:53:25;2.47;;;1.90;;
13208;SDS011;6669;42.678;23.332;2023-08-01T08:55:54;2.20;;;2.00;;
13208;SDS011;6669;42.678;23.332;2023-08-01T08:58:22;3.88;;;1.90;;
13208;SDS011;6669;42.678;23.332;2023-08-01T09:00:51;3.97;;;1.95;;
13208;SDS011;6669;42.678;23.332;2023-08-01T09:03:19;1.80;;;1.70;;
13208;SDS011;6669;42.678;23.332;2023-08-01T09:05:49;1.83;;;1.65;;
13208;SDS011;6669;42.678;23.332;2023-08-01T09:08:18;2.22;;;1.90;;
13208;SDS011;6669;42.678;23.332;2023-08-01T09:10:50;1.98;;;1.77;;
13208;SDS011;6669;42.678;23.332;2023-08-01T09:13:18;2.17;;;1.80;;
13208;SDS011;6669;42.678;23.332;2023-08-01T09:15:47;2.60;;;2.15;;
13208;SDS011;6669;42.678;23.332;2023-08-01T09:18:15;3.45;;;1.88;;
13208;SDS011;6669;42.678;23.332;2023-08-01T09:20:44;2.28;;;1.80;;
13208;SDS011;6669;42.678;23.332;2023-08-01T09:23:15;3.08;;;2.00;;
13208;SDS011;6669;42.678;23.332;2023-08-01T09:25:44;2.50;;;2.00;;
13208;SDS011;6669;42.678;23.332;2023-08-01T09:28:18;3.50;;;2.10;;
13208;SDS011;6669;42.678;23.332;2023-08-01T09:30:48;2.45;;;2.00;;
13208;SDS011;6669;42.678;23.332;2023-08-01T09:33:17;2.78;;;2.20;;
13208;SDS011;6669;42.678;23.332;2023-08-01T09:35:46;2.25;;;2.05;;
13208;SDS011;6669;42.678;23.332;2023-08-01T09:38:15;4.28;;;2.10;;
13208;SDS011;6669;42.678;23.332;2023-08-01T09:40:44;2.10;;;2.00;;
13208;SDS011;6669;42.678;23.332;2023-08-01T09:43:13;2.50;;;2.25;;
13208;SDS011;6669;42.678;23.332;2023-08-01T09:45:49;2.33;;;2.00;;
13208;SDS011;6669;42.678;23.332;2023-08-01T09:48:21;2.17;;;2.00;;
13208;SDS011;6669;42.678;23.332;2023-08-01T09:50:51;2.90;;;2.47;;
13208;SDS011;6669;42.678;23.332;2023-08-01T09:53:21;6.03;;;5.35;;
13208;SDS011;6669;42.678;23.332;2023-08-01T09:55:48;4.95;;;3.40;;
13208;SDS011;6669;42.678;23.332;2023-08-01T09:58:19;2.60;;;2.40;;
13208;SDS011;6669;42.678;23.332;2023-08-01T10:00:49;2.45;;;2.25;;
13208;SDS011;6669;42.678;23.332;2023-08-01T10:03:18;3.13;;;2.28;;
13208;SDS011;6669;42.678;23.332;2023-08-01T10:05:48;2.80;;;2.25;;
13208;SDS011;6669;42.678;23.332;2023-08-01T10:08:21;2.25;;;2.05;;
13208;SDS011;6669;42.678;23.332;2023-08-01T10:10:49;2.20;;;2.00;;
13208;SDS011;6669;42.678;23.332;2023-08-01T10:13:19;3.15;;;2.05;;
13208;SDS011;6669;42.678;23.332;2023-08-01T10:15:50;2.60;;;2.30;;
13208;SDS011;6669;42.678;23.332;2023-08-01T10:18:18;3.40;;;2.70;;
13208;SDS011;6669;42.678;23.332;2023-08-01T10:20:48;2.88;;;2.28;;
13208;SDS011;6669;42.678;23.332;2023-08-01T10:23:17;4.07;;;2.50;;
13208;SDS011;6669;42.678;23.332;2023-08-01T10:25:48;4.20;;;2.28;;
13208;SDS011;6669;42.678;23.332;2023-08-01T10:28:16;2.00;;;1.85;;
13208;SDS011;6669;42.678;23.332;2023-08-01T10:30:44;3.00;;;2.42;;
13208;SDS011;6669;42.678;23.332;2023-08-01T10:33:12;2.75;;;2.10;;
13208;SDS011;6669;42.678;23.332;2023-08-01T10:35:40;2.42;;;2.22;;
13208;SDS011;6669;42.678;23.332;2023-08-01T10:38:09;2.60;;;2.05;;
13208;SDS011;6669;42.678;23.332;2023-08-01T10:40:38;3.17;;;2.10;;
13208;SDS011;6669;42.678;23.332;2023-08-01T10:43:20;4.05;;;2.30;;
13208;SDS011;6669;42.678;23.332;2023-08-01T10:45:48;2.17;;;1.88;;
13208;SDS011;6669;42.678;23.332;2023-08-01T10:48:28;2.65;;;2.30;;
13208;SDS011;6669;42.678;23.332;2023-08-01T10:50:56;2.75;;;2.15;;
13208;SDS011;6669;42.678;23.332;2023-08-01T10:53:24;3.83;;;2.28;;
13208;SDS011;6669;42.678;23.332;2023-08-01T10:55:52;2.47;;;2.25;;
13208;SDS011;6669;42.678;23.332;2023-08-01T10:58:25;2.40;;;2.10;;
13208;SDS011;6669;42.678;23.332;2023-08-01T11:00:57;2.15;;;2.00;;
13208;SDS011;6669;42.678;23.332;2023-08-01T11:03:33;3.05;;;2.25;;
13208;SDS011;6669;42.678;23.332;2023-08-01T11:06:02;2.28;;;2.05;;
13208;SDS011;6669;42.678;23.332;2023-08-01T11:08:35;1.73;;;1.63;;
13208;SDS011;6669;42.678;23.332;2023-08-01T11:11:04;2.78;;;2.00;;
13208;SDS011;6669;42.678;23.332;2023-08-01T11:13:36;2.15;;;1.95;;
13208;SDS011;6669;42.678;23.332;2023-08-01T11:16:05;2.13;;;1.92;;
13208;SDS011;6669;42.678;23.332;2023-08-01T11:18:40;2.10;;;1.90;;
13208;SDS011;6669;42.678;23.332;2023-08-01T11:21:09;2.67;;;1.67;;
13208;SDS011;6669;42.678;23.332;2023-08-01T11:23:37;1.50;;;1.40;;
13208;SDS011;6669;42.678;23.332;2023-08-01T11:26:06;1.70;;;1.60;;
13208;SDS011;6669;42.678;23.332;2023-08-01T11:28:36;2.10;;;2.00;;
13208;SDS011;6669;42.678;23.332;2023-08-01T11:31:10;2.05;;;1.85;;
13208;SDS011;6669;42.678;23.332;2023-08-01T11:33:39;1.75;;;1.65;;
13208;SDS011;6669;42.678;23.332;2023-08-01T11:36:07;2.00;;;1.58;;
13208;SDS011;6669;42.678;23.332;2023-08-01T11:38:35;1.80;;;1.70;;
13208;SDS011;6669;42.678;23.332;2023-08-01T11:41:04;1.63;;;1.52;;
13208;SDS011;6669;42.678;23.332;2023-08-01T11:43:41;3.67;;;1.45;;
13208;SDS011;6669;42.678;23.332;2023-08-01T11:46:10;1.55;;;1.40;;
13208;SDS011;6669;42.678;23.332;2023-08-01T11:48:38;1.88;;;1.77;;
13208;SDS011;6669;42.678;23.332;2023-08-01T11:51:06;3.63;;;1.60;;
13208;SDS011;6669;42.678;23.332;2023-08-01T11:53:34;1.60;;;1.50;;
13208;SDS011;6669;42.678;23.332;2023-08-01T11:56:05;2.22;;;1.80;;
13208;SDS011;6669;42.678;23.332;2023-08-01T11:58:34;1.85;;;1.65;;
13208;SDS011;6669;42.678;23.332;2023-08-01T12:01:06;1.90;;;1.80;;
13208;SDS011;6669;42.678;23.332;2023-08-01T12:03:42;2.00;;;1.80;;
13208;SDS011;6669;42.678;23.332;2023-08-01T12:06:11;2.03;;;1.80;;
13208;SDS011;6669;42.678;23.332;2023-08-01T12:08:41;4.45;;;1.80;;
13208;SDS011;6669;42.678;23.332;2023-08-01T12:11:22;2.35;;;2.15;;
13208;SDS011;6669;42.678;23.332;2023-08-01T12:14:01;2.28;;;1.75;;
13208;SDS011;6669;42.678;23.332;2023-08-01T12:16:31;2.33;;;1.92;;
13208;SDS011;6669;42.678;23.332;2023-08-01T12:18:59;1.70;;;1.60;;
13208;SDS011;6669;42.678;23.332;2023-08-01T12:21:27;2.10;;;1.90;;
13208;SDS011;6669;42.678;23.332;2023-08-01T12:23:55;2.00;;;1.70;;
13208;SDS011;6669;42.678;23.332;2023-08-01T12:26:23;2.65;;;1.50;;
13208;SDS011;6669;42.678;23.332;2023-08-01T12:28:52;1.73;;;1.63;;
13208;SDS011;6669;42.678;23.332;2023-08-01T12:31:20;1.92;;;1.83;;
13208;SDS011;6669;42.678;23.332;2023-08-01T12:33:51;2.85;;;1.75;;
13208;SDS011;6669;42.678;23.332;2023-08-01T12:36:20;1.67;;;1.55;;
13208;SDS011;6669;42.678;23.332;2023-08-01T12:38:48;2.03;;;1.70;;
13208;SDS011;6669;42.678;23.332;2023-08-01T12:41:16;2.08;;;1.90;;
13208;SDS011;6669;42.678;23.332;2023-08-01T12:43:45;2.33;;;1.85;;
13208;SDS011;6669;42.678;23.332;2023-08-01T12:46:13;1.75;;;1.52;;
13208;SDS011;6669;42.678;23.332;2023-08-01T12:48:41;1.50;;;1.40;;
13208;SDS011;6669;42.678;23.332;2023-08-01T12:51:10;1.77;;;1.67;;
13208;SDS011;6669;42.678;23.332;2023-08-01T12:53:41;6.40;;;4.53;;
13208;SDS011;6669;42.678;23.332;2023-08-01T12:56:09;2.80;;;1.65;;
13208;SDS011;6669;42.678;23.332;2023-08-01T12:58:37;3.92;;;1.77;;
13208;SDS011;6669;42.678;23.332;2023-08-01T13:01:05;2.95;;;2.17;;
13208;SDS011;6669;42.678;23.332;2023-08-01T13:03:34;2.60;;;1.90;;
13208;SDS011;6669;42.678;23.332;2023-08-01T13:06:02;2.67;;;1.60;;
13208;SDS011;6669;42.678;23.332;2023-08-01T13:08:31;1.77;;;1.58;;
13208;SDS011;6669;42.678;23.332;2023-08-01T13:10:59;2.20;;;1.80;;
13208;SDS011;6669;42.678;23.332;2023-08-01T13:13:30;1.60;;;1.50;;
13208;SDS011;6669;42.678;23.332;2023-08-01T13:15:58;1.73;;;1.63;;
13208;SDS011;6669;42.678;23.332;2023-08-01T13:18:25;1.98;;;1.77;;
13208;SDS011;6669;42.678;23.332;2023-08-01T13:20:53;1.75;;;1.65;;
13208;SDS011;6669;42.678;23.332;2023-08-01T13:23:24;2.45;;;1.60;;
13208;SDS011;6669;42.678;23.332;2023-08-01T13:25:53;2.33;;;1.80;;
13208;SDS011;6669;42.678;23.332;2023-08-01T13:28:21;1.52;;;1.42;;
13208;SDS011;6669;42.678;23.332;2023-08-01T13:30:49;2.03;;;1.38;;
13208;SDS011;6669;42.678;23.332;2023-08-01T13:33:17;1.38;;;1.27;;
13208;SDS011;6669;42.678;23.332;2023-08-01T13:35:45;1.50;;;1.40;;
13208;SDS011;6669;42.678;23.332;2023-08-01T13:38:13;2.88;;;1.10;;
13208;SDS011;6669;42.678;23.332;2023-08-01T13:40:43;1.27;;;1.17;;
13208;SDS011;6669;42.678;23.332;2023-08-01T13:43:13;0.90;;;0.90;;
13208;SDS011;6669;42.678;23.332;2023-08-01T13:45:41;2.53;;;1.40;;
13208;SDS011;6669;42.678;23.332;2023-08-01T13:48:09;1.35;;;1.25;;
13208;SDS011;6669;42.678;23.332;2023-08-01T13:50:38;1.50;;;1.40;;
13208;SDS011;6669;42.678;23.332;2023-08-01T13:53:05;1.55;;;1.45;;
13208;SDS011;6669;42.678;23.332;2023-08-01T13:55:37;1.25;;;1.15;;
13208;SDS011;6669;42.678;23.332;2023-08-01T13:58:05;1.20;;;1.10;;
13208;SDS011;6669;42.678;23.332;2023-08-01T14:00:34;1.75;;;1.10;;
13208;SDS011;6669;42.678;23.332;2023-08-01T14:03:03;2.15;;;1.40;;
13208;SDS011;6669;42.678;23.332;2023-08-01T14:05:31;1.73;;;1.45;;
13208;SDS011;6669;42.678;23.332;2023-08-01T14:07:59;1.35;;;1.25;;
13208;SDS011;6669;42.678;23.332;2023-08-01T14:10:28;1.40;;;1.30;;
13208;SDS011;6669;42.678;23.332;2023-08-01T14:12:56;1.45;;;1.35;;
13208;SDS011;6669;42.678;23.332;2023-08-01T14:15:24;1.42;;;1.33;;
13208;SDS011;6669;42.678;23.332;2023-08-01T14:17:53;4.10;;;1.40;;
13208;SDS011;6669;42.678;23.332;2023-08-01T14:20:21;1.77;;;1.27;;
13208;SDS011;6669;42.678;23.332;2023-08-01T14:22:49;1.25;;;1.15;;
13208;SDS011;6669;42.678;23.332;2023-08-01T14:25:17;1.30;;;1.20;;
13208;SDS011;6669;42.678;23.332;2023-08-01T14:27:45;1.33;;;1.20;;
13208;SDS011;6669;42.678;23.332;2023-08-01T14:30:13;1.60;;;1.35;;
13208;SDS011;6669;42.678;23.332;2023-08-01T14:32:41;1.50;;;1.40;;
13208;SDS011;6669;42.678;23.332;2023-08-01T14:35:11;1.73;;;1.10;;
13208;SDS011;6669;42.678;23.332;2023-08-01T14:37:39;1.17;;;1.17;;
13208;SDS011;6669;42.678;23.332;2023-08-01T14:40:11;1.23;;;1.13;;
13208;SDS011;6669;42.678;23.332;2023-08-01T14:42:39;1.40;;;1.30;;
13208;SDS011;6669;42.678;23.332;2023-08-01T14:45:14;2.95;;;1.70;;
13208;SDS011;6669;42.678;23.332;2023-08-01T14:47:42;1.33;;;1.23;;
13208;SDS011;6669;42.678;23.332;2023-08-01T14:50:12;1.60;;;1.45;;
13208;SDS011;6669;42.678;23.332;2023-08-01T14:52:41;1.20;;;1.00;;
13208;SDS011;6669;42.678;23.332;2023-08-01T14:55:09;1.40;;;1.30;;
13208;SDS011;6669;42.678;23.332;2023-08-01T14:57:38;1.30;;;1.20;;